createdAt,value
2019-01-28T00:00:47.564Z,94268.69
2019-01-28T00:03:13.487Z,94280.56
2019-01-28T00:05:39.367Z,94269.56
2019-01-28T00:08:05.167Z,94288.38
2019-01-28T00:10:31.021Z,94287.62
2019-01-28T00:12:56.959Z,94290.13
2019-01-28T00:15:23.000Z,94299.59
2019-01-28T00:17:48.863Z,94298.95
2019-01-28T00:20:14.700Z,94307.63
2019-01-28T00:22:40.542Z,94309.81
2019-01-28T00:25:48.019Z,94308.19
2019-01-28T00:28:14.052Z,94312.43
2019-01-28T00:30:39.888Z,94312.09
2019-01-28T00:33:05.728Z,94313.72
2019-01-28T00:35:31.678Z,94321.77
2019-01-28T00:37:57.481Z,94333.81
2019-01-28T00:40:23.361Z,94336.88
2019-01-28T00:42:49.170Z,94341.09
2019-01-28T00:45:15.119Z,94354.47
2019-01-28T00:47:41.041Z,94354.36
2019-01-28T00:50:48.531Z,94358.33
2019-01-28T00:53:14.443Z,94367.05
2019-01-28T00:55:40.307Z,94364.88
2019-01-28T00:58:06.118Z,94369.55
2019-01-28T01:00:32.146Z,94372.59
2019-01-28T01:02:58.104Z,94370.20
2019-01-28T01:05:24.015Z,94372.34
2019-01-28T01:07:49.938Z,94374.22
2019-01-28T01:10:15.901Z,94372.23
2019-01-28T01:12:41.906Z,94380.38
2019-01-28T01:15:49.365Z,94376.67
2019-01-28T01:18:15.299Z,94381.46
2019-01-28T01:20:41.109Z,94392.32
2019-01-28T01:23:06.944Z,94402.97
2019-01-28T01:25:32.772Z,94406.98
2019-01-28T01:27:58.637Z,94421.32
2019-01-28T01:30:24.491Z,94421.94
2019-01-28T01:32:50.303Z,94433.45
2019-01-28T01:35:16.135Z,94441.81
2019-01-28T01:37:41.981Z,94448.11
2019-01-28T01:40:49.479Z,94452.13
2019-01-28T01:43:15.352Z,94453.64
2019-01-28T01:45:41.212Z,94466.68
2019-01-28T01:48:07.032Z,94472.22
2019-01-28T01:50:32.885Z,94463.91
2019-01-28T01:52:58.695Z,94473.28
2019-01-28T01:55:24.544Z,94487.24
2019-01-28T01:57:50.390Z,94491.69
2019-01-28T02:00:57.906Z,94489.45
2019-01-28T02:03:23.735Z,94487.62
2019-01-28T02:05:49.573Z,94494.88
2019-01-28T02:08:15.525Z,94466.27
2019-01-28T02:10:41.346Z,94494.37
2019-01-28T02:13:07.217Z,94502.28
2019-01-28T02:15:33.138Z,94512.66
2019-01-28T02:17:58.985Z,94520.50
2019-01-28T02:20:24.840Z,94529.39
2019-01-28T02:22:50.696Z,94524.59
2019-01-28T02:25:16.561Z,94526.81
2019-01-28T02:27:42.371Z,94533.55
2019-01-28T02:30:49.884Z,94539.73
2019-01-28T02:33:16.164Z,94537.77
2019-01-28T02:35:42.018Z,94547.55
2019-01-28T02:38:07.866Z,94553.07
2019-01-28T02:40:40.516Z,94545.08
2019-01-28T02:43:06.352Z,94552.67
2019-01-28T02:45:32.183Z,94558.64
2019-01-28T02:47:58.005Z,94553.80
2019-01-28T02:50:23.857Z,94558.47
2019-01-28T02:52:49.679Z,94575.48
2019-01-28T02:57:49.257Z,94571.11
2019-01-28T03:00:56.783Z,94575.08
2019-01-28T03:03:22.614Z,94572.66
2019-01-28T03:05:48.445Z,94583.83
2019-01-28T03:08:14.256Z,94581.31
2019-01-28T03:10:40.096Z,94584.00
2019-01-28T03:13:05.943Z,94569.45
2019-01-28T03:15:31.786Z,94578.80
2019-01-28T03:17:57.600Z,94575.20
2019-01-28T03:20:23.778Z,94583.78
2019-01-28T03:22:49.732Z,94576.96
2019-01-28T03:25:57.237Z,94578.04
2019-01-28T03:28:23.062Z,94577.36
2019-01-28T03:30:48.880Z,94585.31
2019-01-28T03:33:14.736Z,94587.00
2019-01-28T03:35:40.548Z,94584.09
2019-01-28T03:38:06.387Z,94589.02
2019-01-28T03:40:32.239Z,94582.28
2019-01-28T03:42:58.098Z,94592.16
2019-01-28T03:45:23.959Z,94597.58
2019-01-28T03:47:49.959Z,94591.53
2019-01-28T03:50:57.449Z,94591.53
2019-01-28T03:53:23.502Z,94594.05
2019-01-28T03:55:49.440Z,94593.38
2019-01-28T03:58:15.276Z,94595.52
2019-01-28T04:00:41.097Z,94592.75
2019-01-28T04:03:06.926Z,94589.16
2019-01-28T04:05:32.898Z,94589.47
2019-01-28T04:07:58.714Z,94590.77
2019-01-28T04:10:24.692Z,94592.13
2019-01-28T04:12:50.642Z,94595.89
2019-01-28T04:15:38.236Z,94599.02
2019-01-28T04:18:04.202Z,94595.89
2019-01-28T04:20:30.051Z,94590.45
2019-01-28T04:22:55.887Z,94601.94
2019-01-28T04:25:23.864Z,94598.34
2019-01-28T04:30:59.256Z,94598.80
2019-01-28T04:33:25.221Z,94593.05
2019-01-28T04:35:51.150Z,94595.35
2019-01-28T04:38:16.979Z,94606.97
2019-01-28T04:40:42.826Z,94602.22
2019-01-28T04:43:08.651Z,94605.30
2019-01-28T04:45:34.490Z,94605.45
2019-01-28T04:48:00.364Z,94598.17
2019-01-28T04:50:26.236Z,94608.05
2019-01-28T04:52:52.078Z,94605.67
2019-01-28T04:55:59.547Z,94603.52
2019-01-28T04:58:25.383Z,94603.52
2019-01-28T05:00:51.247Z,94604.91
2019-01-28T05:03:17.102Z,94608.27
2019-01-28T05:05:42.941Z,94608.36
2019-01-28T05:08:08.788Z,94604.91
2019-01-28T05:10:34.608Z,94610.20
2019-01-28T05:13:00.447Z,94605.67
2019-01-28T05:15:26.282Z,94608.41
2019-01-28T05:17:52.120Z,94602.76
2019-01-28T05:20:59.596Z,94601.99
2019-01-28T05:23:25.498Z,94600.07
2019-01-28T05:25:51.340Z,94595.72
2019-01-28T05:28:17.161Z,94594.73
2019-01-28T05:30:42.984Z,94606.80
2019-01-28T05:33:08.844Z,94599.45
2019-01-28T05:35:34.661Z,94592.27
2019-01-28T05:38:00.494Z,94595.17
2019-01-28T05:40:26.343Z,94592.66
2019-01-28T05:42:52.180Z,94592.52
2019-01-28T05:45:59.682Z,94592.52
2019-01-28T05:48:25.528Z,94592.97
2019-01-28T05:50:51.367Z,94597.41
2019-01-28T05:53:17.229Z,94589.61
2019-01-28T05:55:43.145Z,94603.38
2019-01-28T05:58:08.975Z,94589.92
2019-01-28T06:00:54.686Z,94592.44
2019-01-28T06:03:20.582Z,94593.65
2019-01-28T06:05:46.375Z,94594.27
2019-01-28T06:08:12.208Z,94596.65
2019-01-28T06:10:38.032Z,94599.48
2019-01-28T06:13:04.183Z,94597.41
2019-01-28T06:15:30.082Z,94598.31
2019-01-28T06:17:55.936Z,94597.55
2019-01-28T06:20:41.625Z,94595.72
2019-01-28T06:23:07.470Z,94597.10
2019-01-28T06:25:33.400Z,94606.13
2019-01-28T06:27:59.259Z,94595.94
2019-01-28T06:31:06.747Z,94602.76
2019-01-28T06:33:32.566Z,94601.38
2019-01-28T06:35:58.402Z,94607.56
2019-01-28T06:38:24.208Z,94611.10
2019-01-28T06:40:50.150Z,94607.11
2019-01-28T06:43:16.038Z,94611.16
2019-01-28T06:45:41.888Z,94612.77
2019-01-28T06:48:07.758Z,94613.08
2019-01-28T06:50:33.603Z,94606.66
2019-01-28T06:52:59.533Z,94612.32
2019-01-28T06:55:25.348Z,94610.65
2019-01-28T06:57:51.187Z,94609.18
2019-01-28T07:00:36.877Z,94614.52
2019-01-28T07:03:44.390Z,94607.03
2019-01-28T07:06:10.254Z,94602.67
2019-01-28T07:08:36.108Z,94607.11
2019-01-28T07:11:01.934Z,94610.25
2019-01-28T07:13:27.804Z,94607.88
2019-01-28T07:15:53.610Z,94610.70
2019-01-28T07:18:19.414Z,94609.18
2019-01-28T07:20:45.259Z,94605.90
2019-01-28T07:23:11.088Z,94606.03
2019-01-28T07:25:36.920Z,94609.72
2019-01-28T07:28:44.389Z,94609.72
2019-01-28T07:31:10.206Z,94603.06
2019-01-28T07:33:36.012Z,94606.66
2019-01-28T07:36:01.843Z,94607.96
2019-01-28T07:38:27.674Z,94609.27
2019-01-28T07:40:53.512Z,94614.24
2019-01-28T07:43:19.334Z,94609.27
2019-01-28T07:45:45.854Z,94613.30
2019-01-28T07:48:12.919Z,94604.66
2019-01-28T07:50:38.759Z,94605.67
2019-01-28T07:53:04.573Z,94606.03
2019-01-28T07:55:30.377Z,94609.63
2019-01-28T07:57:56.349Z,94610.30
2019-01-28T08:01:03.787Z,94607.70
2019-01-28T08:03:29.743Z,94611.06
2019-01-28T08:05:55.661Z,94603.88
2019-01-28T08:08:21.506Z,94610.84
2019-01-28T08:10:47.347Z,94601.41
2019-01-28T08:13:13.207Z,94594.91
2019-01-28T08:15:39.041Z,94602.34
2019-01-28T08:18:10.715Z,94605.09
2019-01-28T08:20:32.624Z,94608.09
2019-01-28T08:22:58.438Z,94613.52
2019-01-28T08:25:24.255Z,94598.13
2019-01-28T08:27:50.163Z,94597.91
2019-01-28T08:30:57.678Z,94597.95
2019-01-28T08:33:23.513Z,94596.79
2019-01-28T08:35:49.353Z,94595.11
2019-01-28T08:38:15.153Z,94596.78
2019-01-28T08:40:41.017Z,94593.81
2019-01-28T08:43:06.869Z,94596.10
2019-01-28T08:45:32.818Z,94596.95
2019-01-28T08:47:58.645Z,94597.63
2019-01-28T08:51:06.100Z,94599.88
2019-01-28T08:53:31.926Z,94599.92
2019-01-28T08:55:57.739Z,94596.59
2019-01-28T08:58:23.577Z,94598.66
2019-01-28T09:00:49.412Z,94595.92
2019-01-28T09:03:15.241Z,94591.56
2019-01-28T09:05:41.333Z,94598.97
2019-01-28T09:08:48.822Z,94599.83
2019-01-28T09:11:14.640Z,94596.37
2019-01-28T09:13:40.463Z,94603.81
2019-01-28T09:16:06.285Z,94589.17
2019-01-28T09:18:32.113Z,94593.52
2019-01-28T09:20:57.951Z,94587.96
2019-01-28T09:23:23.791Z,94585.71
2019-01-28T09:25:49.627Z,94582.57
2019-01-28T09:28:15.455Z,94583.04
2019-01-28T09:30:41.299Z,94585.80
2019-01-28T09:33:07.220Z,94578.75
2019-01-28T09:35:33.067Z,94584.19
2019-01-28T09:37:58.989Z,94585.04
2019-01-28T09:41:06.467Z,94591.91
2019-01-28T09:43:32.323Z,94597.25
2019-01-28T09:45:58.161Z,94588.04
2019-01-28T09:48:23.977Z,94586.81
2019-01-28T09:50:49.861Z,94590.08
2019-01-28T09:53:15.695Z,94590.53
2019-01-28T09:55:41.646Z,94586.62
2019-01-28T09:58:07.740Z,94591.92
2019-01-28T10:01:15.225Z,94592.24
2019-01-28T10:03:41.072Z,94598.03
2019-01-28T10:06:06.901Z,94598.53
2019-01-28T10:08:32.735Z,94598.66
2019-01-28T10:10:58.560Z,94602.21
2019-01-28T10:13:24.414Z,94589.77
2019-01-28T10:15:50.350Z,94593.20
2019-01-28T10:18:16.208Z,94596.56
2019-01-28T10:21:23.687Z,94591.80
2019-01-28T10:23:49.565Z,94589.02
2019-01-28T10:26:15.480Z,94587.80
2019-01-28T10:28:41.301Z,94581.38
2019-01-28T10:31:07.236Z,94585.52
2019-01-28T10:33:33.069Z,94593.33
2019-01-28T10:35:59.006Z,94583.13
2019-01-28T10:38:24.849Z,94585.42
2019-01-28T10:40:50.682Z,94595.30
2019-01-28T10:43:16.525Z,94584.30
2019-01-28T10:45:42.443Z,94580.17
2019-01-28T10:48:49.991Z,94575.82
2019-01-28T10:53:49.646Z,94585.92
2019-01-28T10:56:15.480Z,94578.46
2019-01-28T10:58:41.463Z,94572.93
2019-01-28T11:01:07.357Z,94573.70
2019-01-28T11:04:14.866Z,94573.56
2019-01-28T11:06:40.693Z,94570.64
2019-01-28T11:09:06.683Z,94574.14
2019-01-28T11:11:32.597Z,94556.09
2019-01-28T11:13:58.535Z,94567.09
2019-01-28T11:16:24.370Z,94563.05
2019-01-28T11:18:57.427Z,94558.50
2019-01-28T11:21:17.975Z,94521.41
2019-01-28T11:23:43.848Z,94568.70
2019-01-28T11:26:09.739Z,94558.28
2019-01-28T11:28:35.679Z,94563.11
2019-01-28T11:33:49.133Z,94559.36
2019-01-28T11:36:14.949Z,94562.25
2019-01-28T11:38:40.834Z,94556.63
2019-01-28T11:41:06.750Z,94554.21
2019-01-28T11:43:32.914Z,94558.13
2019-01-28T11:46:40.514Z,94551.92
2019-01-28T11:49:06.538Z,94552.37
2019-01-28T11:51:32.527Z,94554.44
2019-01-28T11:53:58.335Z,94550.84
2019-01-28T11:56:24.316Z,94546.23
2019-01-28T11:58:50.129Z,94552.47
2019-01-28T12:04:03.509Z,94553.16
2019-01-28T12:06:29.335Z,94555.95
2019-01-28T12:08:55.299Z,94558.16
2019-01-28T12:11:21.128Z,94560.31
2019-01-28T12:13:46.973Z,94560.80
2019-01-28T12:16:12.821Z,94569.33
2019-01-28T12:18:38.655Z,94575.88
2019-01-28T12:21:04.691Z,94574.22
2019-01-28T12:23:34.474Z,94567.26
2019-01-28T12:25:58.330Z,94560.66
2019-01-28T12:28:24.146Z,94561.55
2019-01-28T12:30:49.999Z,94564.16
2019-01-28T12:33:15.834Z,94564.09
2019-01-28T12:35:41.651Z,94566.98
2019-01-28T12:38:07.728Z,94563.39
2019-01-28T12:40:33.587Z,94569.67
2019-01-28T12:43:41.135Z,94567.03
2019-01-28T12:46:07.089Z,94568.34
2019-01-28T12:48:33.216Z,94572.78
2019-01-28T12:50:59.086Z,94570.78
2019-01-28T12:53:25.018Z,94521.05
2019-01-28T12:55:50.917Z,94570.55
2019-01-28T12:58:16.757Z,94572.33
2019-01-28T13:01:02.547Z,94570.94
2019-01-28T13:03:28.560Z,94567.35
2019-01-28T13:05:54.614Z,94568.25
2019-01-28T13:08:20.592Z,94569.55
2019-01-28T13:10:46.992Z,94565.01
2019-01-28T13:13:13.035Z,94560.66
2019-01-28T13:15:39.250Z,94571.11
2019-01-28T13:18:05.213Z,94563.55
2019-01-28T13:20:31.095Z,94577.47
2019-01-28T13:22:57.051Z,94572.80
2019-01-28T13:26:04.553Z,94569.88
2019-01-28T13:28:30.580Z,94571.31
2019-01-28T13:30:56.768Z,94571.75
2019-01-28T13:33:22.787Z,94568.61
2019-01-28T13:35:48.658Z,94569.21
2019-01-28T13:38:14.517Z,94571.44
2019-01-28T13:40:40.485Z,94556.06
2019-01-28T13:43:06.553Z,94570.13
2019-01-28T13:45:32.637Z,94568.00
2019-01-28T13:47:58.777Z,94574.42
2019-01-28T13:50:24.741Z,94574.90
2019-01-28T13:53:32.259Z,94573.72
2019-01-28T13:55:58.163Z,94578.66
2019-01-28T13:58:24.026Z,94583.67
2019-01-28T14:00:50.020Z,94585.28
2019-01-28T14:03:16.084Z,94577.66
2019-01-28T14:05:42.108Z,94584.17
2019-01-28T14:08:08.234Z,94584.40
2019-01-28T14:10:34.248Z,94586.41
2019-01-28T14:13:00.193Z,94588.41
2019-01-28T14:16:07.721Z,94587.37
2019-01-28T14:18:33.552Z,94591.58
2019-01-28T14:20:59.407Z,94593.25
2019-01-28T14:23:25.311Z,94599.75
2019-01-28T14:25:51.226Z,94582.61
2019-01-28T14:28:17.001Z,94597.33
2019-01-28T14:31:24.503Z,94589.66
2019-01-28T14:33:50.375Z,94587.59
2019-01-28T14:36:16.315Z,94589.58
2019-01-28T14:38:42.352Z,94594.73
2019-01-28T14:41:08.273Z,94593.11
2019-01-28T14:43:34.335Z,94598.71
2019-01-28T14:46:00.351Z,94596.03
2019-01-28T14:48:26.189Z,94593.20
2019-01-28T14:51:06.245Z,94599.17
2019-01-28T14:53:19.832Z,94601.23
2019-01-28T14:55:45.765Z,94602.84
2019-01-28T14:58:16.510Z,94594.81
2019-01-28T15:01:21.227Z,94600.09
2019-01-28T15:03:47.077Z,94605.22
2019-01-28T15:06:26.232Z,94600.30
2019-01-28T15:08:52.352Z,94600.30
2019-01-28T15:11:18.237Z,94604.73
2019-01-28T15:13:44.261Z,94599.63
2019-01-28T15:16:10.216Z,94606.97
2019-01-28T15:18:36.057Z,94609.34
2019-01-28T15:21:02.077Z,94601.31
2019-01-28T15:23:47.891Z,94600.92
2019-01-28T15:26:13.880Z,94600.92
2019-01-28T15:31:47.144Z,94601.99
2019-01-28T15:34:12.992Z,94603.83
2019-01-28T15:36:38.887Z,94603.52
2019-01-28T15:39:46.422Z,94597.87
2019-01-28T15:42:12.258Z,94600.02
2019-01-28T15:44:38.138Z,94621.98
2019-01-28T15:47:04.107Z,94612.87
2019-01-28T15:49:29.967Z,94612.43
2019-01-28T15:51:55.826Z,94612.57
2019-01-28T15:54:21.929Z,94614.19
2019-01-28T15:56:47.811Z,94615.79
2019-01-28T15:59:34.108Z,94617.86
2019-01-28T16:01:59.995Z,94625.75
2019-01-28T16:04:26.188Z,94609.29
2019-01-28T16:06:52.089Z,94610.90
2019-01-28T16:09:18.136Z,94616.16
2019-01-28T16:12:25.762Z,94615.88
2019-01-28T16:14:51.905Z,94619.06
2019-01-28T16:17:17.926Z,94615.33
2019-01-28T16:19:43.843Z,94617.02
2019-01-28T16:22:10.021Z,94627.20
2019-01-28T16:24:35.933Z,94619.67
2019-01-28T16:27:01.784Z,94624.65
2019-01-28T16:29:27.897Z,94635.13
2019-01-28T16:31:53.887Z,94631.99
2019-01-28T16:34:19.744Z,94636.89
2019-01-28T16:36:45.648Z,94640.25
2019-01-28T16:39:11.606Z,94648.81
2019-01-28T16:41:37.681Z,94653.11
2019-01-28T16:44:45.210Z,94652.27
2019-01-28T16:47:11.057Z,94657.69
2019-01-28T16:49:36.926Z,94655.94
2019-01-28T16:52:44.445Z,94659.08
2019-01-28T16:55:52.052Z,94656.02
2019-01-28T16:58:18.219Z,94663.28
2019-01-28T17:00:44.098Z,94668.25
2019-01-28T17:03:10.067Z,94669.48
2019-01-28T17:06:17.585Z,94664.81
2019-01-28T17:08:43.426Z,94657.69
2019-01-28T17:11:09.360Z,94665.72
2019-01-28T17:13:35.433Z,94669.39
2019-01-28T17:16:01.404Z,94661.59
2019-01-28T17:18:27.396Z,94671.31
2019-01-28T17:20:53.868Z,94668.48
2019-01-28T17:23:19.873Z,94668.48
2019-01-28T17:25:46.239Z,94671.54
2019-01-28T17:28:12.287Z,94684.39
2019-01-28T17:31:22.213Z,94682.25
2019-01-28T17:33:48.666Z,94685.61
2019-01-28T17:36:36.086Z,94682.02
2019-01-28T17:39:43.661Z,94678.12
2019-01-28T17:42:09.500Z,94693.72
2019-01-28T17:44:35.326Z,94677.25
2019-01-28T17:47:01.377Z,94695.87
2019-01-28T17:52:01.472Z,94693.80
2019-01-28T17:54:27.313Z,94703.44
2019-01-28T17:56:53.131Z,94701.83
2019-01-28T17:59:18.973Z,94707.88
2019-01-28T18:01:44.830Z,94708.56
2019-01-28T18:04:10.652Z,94710.86
2019-01-28T18:06:36.530Z,94715.83
2019-01-28T18:09:43.995Z,94716.82
2019-01-28T18:12:09.849Z,94717.13
2019-01-28T18:14:35.687Z,94721.26
2019-01-28T18:17:01.685Z,94724.09
2019-01-28T18:19:27.651Z,94731.12
2019-01-28T18:21:53.489Z,94731.97
2019-01-28T18:24:19.403Z,94732.50
2019-01-28T18:26:45.280Z,94735.94
2019-01-28T18:29:11.306Z,94738.77
2019-01-28T18:31:37.221Z,94733.34
2019-01-28T18:34:44.715Z,94740.30
2019-01-28T18:37:10.551Z,94740.38
2019-01-28T18:39:36.506Z,94740.91
2019-01-28T18:42:02.388Z,94748.34
2019-01-28T18:44:28.210Z,94743.67
2019-01-28T18:46:54.067Z,94746.80
2019-01-28T18:49:19.971Z,94754.30
2019-01-28T18:51:45.774Z,94757.52
2019-01-28T18:54:11.636Z,94749.86
2019-01-28T18:56:37.460Z,94757.97
2019-01-28T18:59:03.401Z,94751.09
2019-01-28T19:01:29.243Z,94761.64
2019-01-28T19:03:55.093Z,94765.01
2019-01-28T19:09:28.197Z,94765.23
2019-01-28T19:17:35.399Z,94786.66
2019-01-28T19:22:34.895Z,94789.02
2019-01-28T19:25:20.617Z,94782.56
2019-01-28T19:27:46.604Z,94782.56
2019-01-28T19:30:54.090Z,94799.73
2019-01-28T19:33:19.930Z,94797.13
2019-01-28T19:35:45.767Z,94805.69
2019-01-28T19:38:11.573Z,94804.39
2019-01-28T19:40:37.415Z,94811.89
2019-01-28T19:43:03.477Z,94812.66
2019-01-28T19:45:29.490Z,94816.09
2019-01-28T19:47:55.379Z,94816.09
2019-01-28T19:50:21.364Z,94821.30
2019-01-28T19:52:47.329Z,94827.72
2019-01-28T19:55:54.861Z,94824.13
2019-01-28T19:58:20.718Z,94829.56
2019-01-28T20:00:46.564Z,94834.99
2019-01-28T20:03:12.534Z,94843.56
2019-01-28T20:05:38.685Z,94849.30
2019-01-28T20:08:04.720Z,94853.43
2019-01-28T20:10:30.932Z,94854.42
2019-01-28T20:12:56.993Z,94866.20
2019-01-28T20:15:42.739Z,94869.49
2019-01-28T20:18:08.663Z,94878.06
2019-01-28T20:20:34.606Z,94878.90
2019-01-28T20:23:00.599Z,94882.80
2019-01-28T20:25:26.497Z,94891.67
2019-01-28T20:27:52.368Z,94898.33
2019-01-28T20:30:38.096Z,94904.30
2019-01-28T20:33:04.196Z,94903.30
2019-01-28T20:35:30.257Z,94899.70
2019-01-28T20:37:56.136Z,94909.58
2019-01-28T20:40:22.099Z,94911.34
2019-01-28T20:42:48.074Z,94915.17
2019-01-28T20:45:55.635Z,94910.97
2019-01-28T20:48:21.501Z,94914.17
2019-01-28T20:50:47.372Z,94922.51
2019-01-28T20:53:13.499Z,94932.98
2019-01-28T20:55:39.368Z,94932.75
2019-01-28T20:58:05.372Z,94929.01
2019-01-28T21:00:31.386Z,94880.37
2019-01-28T21:02:57.323Z,94943.55
2019-01-28T21:06:04.848Z,94944.55
2019-01-28T21:08:31.025Z,94953.48
2019-01-28T21:10:57.021Z,94959.92
2019-01-28T21:13:23.152Z,94971.09
2019-01-28T21:15:49.082Z,94967.66
2019-01-28T21:18:15.005Z,94972.92
2019-01-28T21:20:40.943Z,94977.06
2019-01-28T21:23:06.903Z,94985.63
2019-01-28T21:25:32.880Z,94985.16
2019-01-28T21:27:58.722Z,94988.23
2019-01-28T21:31:06.209Z,94996.33
2019-01-28T21:33:32.073Z,94989.06
2019-01-28T21:36:17.767Z,94997.46
2019-01-28T21:41:21.027Z,95003.13
2019-01-28T21:43:46.875Z,95014.53
2019-01-28T21:46:12.840Z,95021.80
2019-01-28T21:48:38.721Z,95018.73
2019-01-28T21:51:04.925Z,95020.51
2019-01-28T21:53:30.785Z,95024.70
2019-01-28T21:59:03.909Z,95029.03
2019-01-28T22:01:29.778Z,95039.02
2019-01-28T22:03:55.624Z,95034.03
2019-01-28T22:06:21.492Z,95043.27
2019-01-28T22:08:47.363Z,95048.34
2019-01-28T22:11:13.366Z,95049.91
2019-01-28T22:13:39.179Z,95058.05
2019-01-28T22:16:05.185Z,95061.72
2019-01-28T22:18:31.042Z,95059.41
2019-01-28T22:20:57.580Z,95066.84
2019-01-28T22:23:25.330Z,95079.72
2019-01-28T22:25:51.201Z,95069.27
2019-01-28T22:28:17.104Z,95074.29
2019-01-28T22:30:43.096Z,95080.26
2019-01-28T22:33:09.110Z,95088.94
2019-01-28T22:35:35.134Z,95085.55
2019-01-28T22:38:00.971Z,95096.62
2019-01-28T22:40:26.828Z,95094.11
2019-01-28T22:42:52.681Z,95092.31
2019-01-28T22:45:38.401Z,95105.37
2019-01-28T22:48:04.345Z,95103.24
2019-01-28T22:50:30.240Z,95115.48
2019-01-28T22:55:30.217Z,95122.72
2019-01-28T22:57:56.163Z,95131.77
2019-01-28T23:01:03.652Z,95132.83
2019-01-28T23:03:29.639Z,95139.62
2019-01-28T23:05:55.464Z,95140.95
2019-01-28T23:08:21.296Z,95140.42
2019-01-28T23:10:47.250Z,95146.68
2019-01-28T23:13:13.114Z,95149.05
2019-01-28T23:15:39.106Z,95153.95
2019-01-28T23:18:05.100Z,95153.42
2019-01-28T23:20:30.962Z,95151.88
2019-01-28T23:22:56.798Z,95162.28
2019-01-28T23:25:22.881Z,95159.45
2019-01-28T23:27:48.722Z,95162.70
2019-01-28T23:30:14.902Z,95171.08
2019-01-28T23:32:40.770Z,95164.08
2019-01-28T23:35:48.264Z,95170.88
2019-01-28T23:38:14.116Z,95176.00
2019-01-28T23:40:40.058Z,95195.50
2019-01-28T23:43:05.899Z,95192.69
2019-01-28T23:45:31.822Z,95196.63
2019-01-28T23:47:57.776Z,95196.69
2019-01-28T23:50:23.768Z,95203.19
2019-01-28T23:52:49.677Z,95213.45
2019-01-28T23:55:15.645Z,95207.85
2019-01-28T23:57:41.493Z,95213.48
